sensor_id;sensor_type;location;lat;lon;timestamp;pressure;altitude;pressure_sealevel;temperature;humidity
7182;BME280;3632;42.724;23.298;2022-09-09T00:00:11;95594.66;;;20.83;71.16
7182;BME280;3632;42.724;23.298;2022-09-09T00:02:38;95595.00;;;20.80;71.08
7182;BME280;3632;42.724;23.298;2022-09-09T00:05:14;95585.28;;;20.82;71.25
7182;BME280;3632;42.724;23.298;2022-09-09T00:07:49;95459.38;;;19.98;71.13
7182;BME280;3632;42.724;23.298;2022-09-09T00:10:24;95444.78;;;19.82;71.80
7182;BME280;3632;42.724;23.298;2022-09-09T00:12:59;95584.78;;;20.64;72.31
7182;BME280;3632;42.724;23.298;2022-09-09T00:15:30;95531.00;;;20.20;72.20
7182;BME280;3632;42.724;23.298;2022-09-09T00:18:07;95582.84;;;20.66;72.37
7182;BME280;3632;42.724;23.298;2022-09-09T00:20:42;95576.03;;;20.65;72.93
7182;BME280;3632;42.724;23.298;2022-09-09T00:23:14;95567.69;;;20.55;72.86
7182;BME280;3632;42.724;23.298;2022-09-09T00:25:54;95562.13;;;20.43;73.50
7182;BME280;3632;42.724;23.298;2022-09-09T00:28:26;95492.44;;;19.88;74.19
7182;BME280;3632;42.724;23.298;2022-09-09T00:30:55;95564.41;;;20.15;75.11
7182;BME280;3632;42.724;23.298;2022-09-09T00:33:23;95575.31;;;20.02;75.75
7182;BME280;3632;42.724;23.298;2022-09-09T00:35:53;95553.16;;;20.00;75.85
7182;BME280;3632;42.724;23.298;2022-09-09T00:38:26;95547.91;;;19.85;76.46
7182;BME280;3632;42.724;23.298;2022-09-09T00:41:01;95546.13;;;19.86;76.80
7182;BME280;3632;42.724;23.298;2022-09-09T00:43:32;95543.56;;;19.86;76.93
7182;BME280;3632;42.724;23.298;2022-09-09T00:49:04;95555.28;;;19.96;76.84
7182;BME280;3632;42.724;23.298;2022-09-09T00:51:44;95556.38;;;20.02;76.77
7182;BME280;3632;42.724;23.298;2022-09-09T00:54:27;95569.31;;;20.02;76.78
7182;BME280;3632;42.724;23.298;2022-09-09T00:57:04;95560.91;;;20.00;76.98
7182;BME280;3632;42.724;23.298;2022-09-09T00:59:38;95552.69;;;19.96;76.74
7182;BME280;3632;42.724;23.298;2022-09-09T01:02:12;95469.72;;;19.44;76.88
7182;BME280;3632;42.724;23.298;2022-09-09T01:04:42;95556.19;;;19.81;77.45
7182;BME280;3632;42.724;23.298;2022-09-09T01:07:13;95550.34;;;19.79;77.48
7182;BME280;3632;42.724;23.298;2022-09-09T01:09:51;95562.94;;;19.82;77.64
7182;BME280;3632;42.724;23.298;2022-09-09T01:12:26;95561.97;;;19.83;77.51
7182;BME280;3632;42.724;23.298;2022-09-09T01:15:03;95563.44;;;19.85;77.54
7182;BME280;3632;42.724;23.298;2022-09-09T01:17:33;95560.00;;;19.93;77.16
7182;BME280;3632;42.724;23.298;2022-09-09T01:20:09;95551.53;;;19.99;76.55
7182;BME280;3632;42.724;23.298;2022-09-09T01:22:42;95566.22;;;20.06;76.20
7182;BME280;3632;42.724;23.298;2022-09-09T01:25:22;95510.53;;;19.88;75.67
7182;BME280;3632;42.724;23.298;2022-09-09T01:27:54;95552.22;;;20.16;75.33
7182;BME280;3632;42.724;23.298;2022-09-09T01:30:23;95540.28;;;20.15;75.38
7182;BME280;3632;42.724;23.298;2022-09-09T01:32:52;95555.97;;;20.13;75.51
7182;BME280;3632;42.724;23.298;2022-09-09T01:35:29;95559.53;;;20.12;75.93
7182;BME280;3632;42.724;23.298;2022-09-09T01:37:58;95567.31;;;20.12;75.76
7182;BME280;3632;42.724;23.298;2022-09-09T01:40:26;95573.13;;;20.14;75.12
7182;BME280;3632;42.724;23.298;2022-09-09T01:42:54;95575.25;;;20.11;75.33
7182;BME280;3632;42.724;23.298;2022-09-09T01:45:21;95574.25;;;19.89;76.12
7182;BME280;3632;42.724;23.298;2022-09-09T01:47:48;95565.38;;;19.83;76.79
7182;BME280;3632;42.724;23.298;2022-09-09T01:50:16;95582.84;;;19.81;77.36
7182;BME280;3632;42.724;23.298;2022-09-09T01:52:44;95582.38;;;19.78;77.06
7182;BME280;3632;42.724;23.298;2022-09-09T01:55:14;95579.75;;;19.86;76.77
7182;BME280;3632;42.724;23.298;2022-09-09T01:57:48;95526.91;;;19.49;77.25
7182;BME280;3632;42.724;23.298;2022-09-09T02:00:19;95573.22;;;19.67;77.23
7182;BME280;3632;42.724;23.298;2022-09-09T02:02:55;95564.53;;;19.60;77.64
7182;BME280;3632;42.724;23.298;2022-09-09T02:05:36;95570.22;;;19.47;78.65
7182;BME280;3632;42.724;23.298;2022-09-09T02:08:06;95562.78;;;19.44;78.77
7182;BME280;3632;42.724;23.298;2022-09-09T02:10:39;95575.09;;;19.34;78.98
7182;BME280;3632;42.724;23.298;2022-09-09T02:13:11;95553.44;;;19.27;79.18
7182;BME280;3632;42.724;23.298;2022-09-09T02:15:43;95558.94;;;19.24;79.31
7182;BME280;3632;42.724;23.298;2022-09-09T02:18:13;95557.81;;;19.18;79.63
7182;BME280;3632;42.724;23.298;2022-09-09T02:20:43;95515.75;;;18.94;79.67
7182;BME280;3632;42.724;23.298;2022-09-09T02:23:12;95549.09;;;19.28;79.48
7182;BME280;3632;42.724;23.298;2022-09-09T02:25:41;95553.25;;;19.37;78.84
7182;BME280;3632;42.724;23.298;2022-09-09T02:28:09;95559.88;;;19.47;78.23
7182;BME280;3632;42.724;23.298;2022-09-09T02:30:41;95564.72;;;19.50;77.49
7182;BME280;3632;42.724;23.298;2022-09-09T02:33:12;95571.50;;;19.51;76.45
7182;BME280;3632;42.724;23.298;2022-09-09T02:35:42;95573.75;;;19.54;75.76
7182;BME280;3632;42.724;23.298;2022-09-09T02:38:12;95573.06;;;19.60;75.48
7182;BME280;3632;42.724;23.298;2022-09-09T02:40:40;95578.53;;;19.66;75.29
7182;BME280;3632;42.724;23.298;2022-09-09T02:43:07;95574.19;;;19.66;75.06
7182;BME280;3632;42.724;23.298;2022-09-09T02:45:39;95582.13;;;19.65;74.92
7182;BME280;3632;42.724;23.298;2022-09-09T02:48:14;95553.44;;;19.43;75.47
7182;BME280;3632;42.724;23.298;2022-09-09T02:50:50;95570.81;;;19.57;75.39
7182;BME280;3632;42.724;23.298;2022-09-09T02:53:24;95571.50;;;19.51;75.65
7182;BME280;3632;42.724;23.298;2022-09-09T02:55:56;95444.31;;;18.70;75.69
7182;BME280;3632;42.724;23.298;2022-09-09T02:58:26;95581.34;;;19.48;75.91
7182;BME280;3632;42.724;23.298;2022-09-09T03:00:52;95567.31;;;19.50;75.99
7182;BME280;3632;42.724;23.298;2022-09-09T03:03:21;95574.25;;;19.50;75.99
7182;BME280;3632;42.724;23.298;2022-09-09T03:05:47;95577.19;;;19.47;75.95
7182;BME280;3632;42.724;23.298;2022-09-09T03:08:15;95560.88;;;19.30;75.92
7182;BME280;3632;42.724;23.298;2022-09-09T03:10:42;95437.88;;;18.50;75.97
7182;BME280;3632;42.724;23.298;2022-09-09T03:13:09;95575.09;;;19.34;76.11
7182;BME280;3632;42.724;23.298;2022-09-09T03:15:36;95582.69;;;19.20;76.85
7182;BME280;3632;42.724;23.298;2022-09-09T03:18:03;95575.59;;;19.22;77.17
7182;BME280;3632;42.724;23.298;2022-09-09T03:20:31;95570.44;;;19.22;77.49
7182;BME280;3632;42.724;23.298;2022-09-09T03:23:00;95578.22;;;19.13;78.14
7182;BME280;3632;42.724;23.298;2022-09-09T03:25:27;95570.63;;;19.04;78.01
7182;BME280;3632;42.724;23.298;2022-09-09T03:27:55;95565.66;;;18.86;78.75
7182;BME280;3632;42.724;23.298;2022-09-09T03:30:23;95568.25;;;18.78;79.85
7182;BME280;3632;42.724;23.298;2022-09-09T03:32:50;95568.72;;;18.74;80.21
7182;BME280;3632;42.724;23.298;2022-09-09T03:35:17;95508.84;;;18.30;80.00
7182;BME280;3632;42.724;23.298;2022-09-09T03:37:46;95559.03;;;18.76;79.92
7182;BME280;3632;42.724;23.298;2022-09-09T03:40:14;95570.19;;;18.68;79.81
7182;BME280;3632;42.724;23.298;2022-09-09T03:42:41;95472.41;;;18.08;80.24
7182;BME280;3632;42.724;23.298;2022-09-09T03:45:09;95569.06;;;18.62;80.12
7182;BME280;3632;42.724;23.298;2022-09-09T03:47:36;95570.38;;;18.58;80.55
7182;BME280;3632;42.724;23.298;2022-09-09T03:50:04;95596.81;;;18.52;81.05
7182;BME280;3632;42.724;23.298;2022-09-09T03:52:34;95588.44;;;18.58;80.92
7182;BME280;3632;42.724;23.298;2022-09-09T03:55:03;95573.91;;;18.57;81.00
7182;BME280;3632;42.724;23.298;2022-09-09T03:57:31;95572.44;;;18.55;81.14
7182;BME280;3632;42.724;23.298;2022-09-09T04:00:00;95582.47;;;18.58;81.25
7182;BME280;3632;42.724;23.298;2022-09-09T04:02:27;95589.06;;;18.60;81.24
7182;BME280;3632;42.724;23.298;2022-09-09T04:04:54;95591.78;;;18.59;81.25
7182;BME280;3632;42.724;23.298;2022-09-09T04:07:20;95583.06;;;18.52;81.14
7182;BME280;3632;42.724;23.298;2022-09-09T04:09:47;95584.34;;;18.48;81.50
7182;BME280;3632;42.724;23.298;2022-09-09T04:12:15;95582.25;;;18.51;81.42
7182;BME280;3632;42.724;23.298;2022-09-09T04:14:43;95569.34;;;18.43;81.63
7182;BME280;3632;42.724;23.298;2022-09-09T04:17:10;95579.81;;;18.34;82.26
7182;BME280;3632;42.724;23.298;2022-09-09T04:19:36;95571.78;;;18.29;82.46
7182;BME280;3632;42.724;23.298;2022-09-09T04:22:03;95574.63;;;18.17;83.03
7182;BME280;3632;42.724;23.298;2022-09-09T04:24:30;95573.81;;;18.17;83.81
7182;BME280;3632;42.724;23.298;2022-09-09T04:26:57;95581.75;;;18.23;83.47
7182;BME280;3632;42.724;23.298;2022-09-09T04:29:25;95580.63;;;18.34;82.86
7182;BME280;3632;42.724;23.298;2022-09-09T04:31:51;95590.94;;;18.34;82.85
7182;BME280;3632;42.724;23.298;2022-09-09T04:34:18;95585.31;;;18.39;82.23
7182;BME280;3632;42.724;23.298;2022-09-09T04:36:45;95580.97;;;18.47;81.83
7182;BME280;3632;42.724;23.298;2022-09-09T04:39:12;95584.38;;;18.56;81.59
7182;BME280;3632;42.724;23.298;2022-09-09T04:41:39;95582.63;;;18.56;81.47
7182;BME280;3632;42.724;23.298;2022-09-09T04:44:06;95588.91;;;18.62;81.02
7182;BME280;3632;42.724;23.298;2022-09-09T04:46:34;95583.56;;;18.71;80.62
7182;BME280;3632;42.724;23.298;2022-09-09T04:49:01;95582.94;;;18.78;80.27
7182;BME280;3632;42.724;23.298;2022-09-09T04:51:28;95460.00;;;18.04;80.09
7182;BME280;3632;42.724;23.298;2022-09-09T04:53:56;95568.25;;;18.78;80.70
7182;BME280;3632;42.724;23.298;2022-09-09T04:56:23;95569.38;;;18.67;81.74
7182;BME280;3632;42.724;23.298;2022-09-09T04:58:52;95574.22;;;18.70;82.22
7182;BME280;3632;42.724;23.298;2022-09-09T05:01:20;95584.56;;;18.79;81.56
7182;BME280;3632;42.724;23.298;2022-09-09T05:03:50;95538.25;;;18.61;80.47
7182;BME280;3632;42.724;23.298;2022-09-09T05:06:20;95440.34;;;17.95;79.01
7182;BME280;3632;42.724;23.298;2022-09-09T05:08:47;95560.47;;;18.94;78.87
7182;BME280;3632;42.724;23.298;2022-09-09T05:11:19;95562.91;;;18.96;78.80
7182;BME280;3632;42.724;23.298;2022-09-09T05:13:47;95570.63;;;19.04;78.57
7182;BME280;3632;42.724;23.298;2022-09-09T05:16:15;95574.97;;;19.11;78.56
7182;BME280;3632;42.724;23.298;2022-09-09T05:18:43;95579.97;;;19.21;77.84
7182;BME280;3632;42.724;23.298;2022-09-09T05:21:13;95572.84;;;19.23;78.37
7182;BME280;3632;42.724;23.298;2022-09-09T05:23:40;95565.75;;;19.25;77.92
7182;BME280;3632;42.724;23.298;2022-09-09T05:26:11;95560.38;;;19.35;78.20
7182;BME280;3632;42.724;23.298;2022-09-09T05:28:38;95586.06;;;19.28;78.59
7182;BME280;3632;42.724;23.298;2022-09-09T05:31:07;95566.38;;;19.27;79.07
7182;BME280;3632;42.724;23.298;2022-09-09T05:33:35;95571.03;;;19.32;78.92
7182;BME280;3632;42.724;23.298;2022-09-09T05:36:03;95567.97;;;19.44;78.84
7182;BME280;3632;42.724;23.298;2022-09-09T05:38:33;95558.28;;;19.46;79.10
7182;BME280;3632;42.724;23.298;2022-09-09T05:41:00;95558.22;;;19.54;78.91
7182;BME280;3632;42.724;23.298;2022-09-09T05:43:27;95565.66;;;19.57;77.10
7182;BME280;3632;42.724;23.298;2022-09-09T05:46:02;95566.47;;;19.58;76.91
7182;BME280;3632;42.724;23.298;2022-09-09T05:48:31;95575.34;;;19.64;76.66
7182;BME280;3632;42.724;23.298;2022-09-09T05:50:58;95566.59;;;19.65;75.99
7182;BME280;3632;42.724;23.298;2022-09-09T05:53:25;95579.25;;;19.51;75.14
7182;BME280;3632;42.724;23.298;2022-09-09T05:56:00;95571.78;;;19.65;75.26
7182;BME280;3632;42.724;23.298;2022-09-09T05:58:28;95572.88;;;19.70;75.42
7182;BME280;3632;42.724;23.298;2022-09-09T06:01:01;95578.81;;;19.79;75.22
7182;BME280;3632;42.724;23.298;2022-09-09T06:03:28;95582.66;;;19.83;74.94
7182;BME280;3632;42.724;23.298;2022-09-09T06:05:58;95597.66;;;19.95;74.55
7182;BME280;3632;42.724;23.298;2022-09-09T06:08:25;95584.50;;;20.05;74.07
7182;BME280;3632;42.724;23.298;2022-09-09T06:10:52;95574.75;;;20.15;73.45
7182;BME280;3632;42.724;23.298;2022-09-09T06:13:20;95574.84;;;20.22;73.01
7182;BME280;3632;42.724;23.298;2022-09-09T06:15:50;95582.09;;;20.26;73.12
7182;BME280;3632;42.724;23.298;2022-09-09T06:18:17;95584.31;;;20.37;72.66
7182;BME280;3632;42.724;23.298;2022-09-09T06:20:53;95582.84;;;20.43;72.25
7182;BME280;3632;42.724;23.298;2022-09-09T06:23:20;95583.00;;;20.41;72.06
7182;BME280;3632;42.724;23.298;2022-09-09T06:25:47;95583.72;;;20.27;71.65
7182;BME280;3632;42.724;23.298;2022-09-09T06:28:14;95584.84;;;20.33;70.99
7182;BME280;3632;42.724;23.298;2022-09-09T06:30:42;95593.53;;;20.40;70.50
7182;BME280;3632;42.724;23.298;2022-09-09T06:33:09;95595.72;;;20.51;70.51
7182;BME280;3632;42.724;23.298;2022-09-09T06:35:36;95573.00;;;20.61;70.20
7182;BME280;3632;42.724;23.298;2022-09-09T06:38:03;95570.50;;;20.68;70.33
7182;BME280;3632;42.724;23.298;2022-09-09T06:40:31;95579.81;;;20.77;70.47
7182;BME280;3632;42.724;23.298;2022-09-09T06:42:59;95571.53;;;20.81;70.85
7182;BME280;3632;42.724;23.298;2022-09-09T06:45:26;95559.47;;;20.88;70.75
7182;BME280;3632;42.724;23.298;2022-09-09T06:47:56;95561.81;;;20.98;70.05
7182;BME280;3632;42.724;23.298;2022-09-09T06:50:23;95494.13;;;20.49;68.31
7182;BME280;3632;42.724;23.298;2022-09-09T06:52:49;95577.00;;;21.01;67.61
7182;BME280;3632;42.724;23.298;2022-09-09T06:55:17;95574.03;;;21.12;67.57
7182;BME280;3632;42.724;23.298;2022-09-09T06:57:44;95497.88;;;20.76;66.69
7182;BME280;3632;42.724;23.298;2022-09-09T07:00:11;95576.34;;;21.36;66.37
7182;BME280;3632;42.724;23.298;2022-09-09T07:02:39;95577.31;;;21.35;65.57
7182;BME280;3632;42.724;23.298;2022-09-09T07:05:08;95574.41;;;21.38;65.06
7182;BME280;3632;42.724;23.298;2022-09-09T07:07:35;95237.84;;;19.30;66.17
7182;BME280;3632;42.724;23.298;2022-09-09T07:10:03;95571.94;;;21.52;66.46
7182;BME280;3632;42.724;23.298;2022-09-09T07:12:30;95573.41;;;21.54;65.89
7182;BME280;3632;42.724;23.298;2022-09-09T07:14:57;95564.34;;;21.65;65.68
7182;BME280;3632;42.724;23.298;2022-09-09T07:17:24;95514.56;;;21.40;64.66
7182;BME280;3632;42.724;23.298;2022-09-09T07:19:50;95561.19;;;21.84;63.97
7182;BME280;3632;42.724;23.298;2022-09-09T07:22:19;95569.78;;;21.84;63.15
7182;BME280;3632;42.724;23.298;2022-09-09T07:24:45;95561.63;;;21.87;63.61
7182;BME280;3632;42.724;23.298;2022-09-09T07:27:12;95560.28;;;21.92;63.66
7182;BME280;3632;42.724;23.298;2022-09-09T07:29:39;95561.25;;;22.05;63.32
7182;BME280;3632;42.724;23.298;2022-09-09T07:32:05;95576.91;;;22.12;63.24
7182;BME280;3632;42.724;23.298;2022-09-09T07:34:32;95565.13;;;22.30;62.71
7182;BME280;3632;42.724;23.298;2022-09-09T07:36:59;95555.59;;;22.38;62.47
7182;BME280;3632;42.724;23.298;2022-09-09T07:39:27;95554.09;;;22.50;62.94
7182;BME280;3632;42.724;23.298;2022-09-09T07:41:53;95553.84;;;22.66;62.29
7182;BME280;3632;42.724;23.298;2022-09-09T07:44:22;95560.03;;;22.86;60.62
7182;BME280;3632;42.724;23.298;2022-09-09T07:46:50;95566.22;;;22.85;59.71
7182;BME280;3632;42.724;23.298;2022-09-09T07:49:17;95525.88;;;22.68;59.83
7182;BME280;3632;42.724;23.298;2022-09-09T07:51:45;95561.97;;;23.05;59.29
7182;BME280;3632;42.724;23.298;2022-09-09T07:54:14;95565.84;;;23.16;58.39
7182;BME280;3632;42.724;23.298;2022-09-09T07:56:43;95555.88;;;23.19;59.19
7182;BME280;3632;42.724;23.298;2022-09-09T07:59:10;95543.84;;;23.18;59.24
7182;BME280;3632;42.724;23.298;2022-09-09T08:01:39;95550.91;;;23.59;59.49
7182;BME280;3632;42.724;23.298;2022-09-09T08:04:07;95554.56;;;23.71;59.32
7182;BME280;3632;42.724;23.298;2022-09-09T08:06:36;95557.81;;;23.86;57.96
7182;BME280;3632;42.724;23.298;2022-09-09T08:09:04;95557.06;;;23.92;57.70
7182;BME280;3632;42.724;23.298;2022-09-09T08:11:32;95556.66;;;23.95;57.09
7182;BME280;3632;42.724;23.298;2022-09-09T08:14:00;95556.06;;;24.00;56.88
7182;BME280;3632;42.724;23.298;2022-09-09T08:16:30;95560.28;;;24.07;56.78
7182;BME280;3632;42.724;23.298;2022-09-09T08:18:57;95450.59;;;23.50;56.73
7182;BME280;3632;42.724;23.298;2022-09-09T08:21:27;95559.78;;;24.32;56.46
7182;BME280;3632;42.724;23.298;2022-09-09T08:23:55;95546.41;;;24.48;55.76
7182;BME280;3632;42.724;23.298;2022-09-09T08:26:24;95513.91;;;24.50;56.01
7182;BME280;3632;42.724;23.298;2022-09-09T08:28:52;95546.00;;;24.97;55.18
7182;BME280;3632;42.724;23.298;2022-09-09T08:31:22;95541.78;;;25.16;54.10
7182;BME280;3632;42.724;23.298;2022-09-09T08:33:49;95532.53;;;25.20;54.43
7182;BME280;3632;42.724;23.298;2022-09-09T08:36:18;95544.16;;;25.30;54.14
7182;BME280;3632;42.724;23.298;2022-09-09T08:38:47;95537.31;;;25.36;53.38
7182;BME280;3632;42.724;23.298;2022-09-09T08:41:38;95537.50;;;25.34;53.48
7182;BME280;3632;42.724;23.298;2022-09-09T08:44:09;95537.53;;;25.28;53.01
7182;BME280;3632;42.724;23.298;2022-09-09T08:46:45;95530.50;;;25.35;53.22
7182;BME280;3632;42.724;23.298;2022-09-09T08:49:33;95532.50;;;25.33;52.52
7182;BME280;3632;42.724;23.298;2022-09-09T08:52:12;95520.81;;;25.48;52.90
7182;BME280;3632;42.724;23.298;2022-09-09T08:54:41;95534.03;;;25.67;52.83
7182;BME280;3632;42.724;23.298;2022-09-09T08:57:13;95529.34;;;25.82;52.11
7182;BME280;3632;42.724;23.298;2022-09-09T08:59:41;95444.31;;;25.55;52.46
7182;BME280;3632;42.724;23.298;2022-09-09T09:02:15;95517.50;;;26.17;52.22
7182;BME280;3632;42.724;23.298;2022-09-09T09:04:56;95523.44;;;26.38;51.51
7182;BME280;3632;42.724;23.298;2022-09-09T09:07:35;95535.41;;;26.52;50.63
7182;BME280;3632;42.724;23.298;2022-09-09T09:10:14;95529.38;;;26.51;49.71
7182;BME280;3632;42.724;23.298;2022-09-09T09:12:43;95527.16;;;26.48;49.63
7182;BME280;3632;42.724;23.298;2022-09-09T09:15:17;95434.03;;;25.98;49.77
7182;BME280;3632;42.724;23.298;2022-09-09T09:17:46;95507.03;;;26.55;50.10
7182;BME280;3632;42.724;23.298;2022-09-09T09:20:14;95521.97;;;26.73;49.51
7182;BME280;3632;42.724;23.298;2022-09-09T09:22:47;95525.53;;;26.85;49.49
7182;BME280;3632;42.724;23.298;2022-09-09T09:25:18;95520.66;;;26.82;49.32
7182;BME280;3632;42.724;23.298;2022-09-09T09:27:50;95513.16;;;26.67;49.04
7182;BME280;3632;42.724;23.298;2022-09-09T09:30:21;95520.03;;;26.62;49.85
7182;BME280;3632;42.724;23.298;2022-09-09T09:32:53;95410.47;;;25.79;50.25
7182;BME280;3632;42.724;23.298;2022-09-09T09:35:20;95515.28;;;26.52;50.58
7182;BME280;3632;42.724;23.298;2022-09-09T09:37:47;95514.50;;;26.52;49.85
7182;BME280;3632;42.724;23.298;2022-09-09T09:40:16;95509.09;;;26.47;50.17
7182;BME280;3632;42.724;23.298;2022-09-09T09:42:51;95507.13;;;26.67;50.07
7182;BME280;3632;42.724;23.298;2022-09-09T09:45:26;95433.72;;;25.87;50.02
7182;BME280;3632;42.724;23.298;2022-09-09T09:48:00;95500.81;;;26.74;49.59
7182;BME280;3632;42.724;23.298;2022-09-09T09:50:28;95497.47;;;26.67;50.40
7182;BME280;3632;42.724;23.298;2022-09-09T09:52:58;95498.31;;;26.61;50.78
7182;BME280;3632;42.724;23.298;2022-09-09T09:55:25;95496.97;;;26.52;51.02
7182;BME280;3632;42.724;23.298;2022-09-09T09:57:53;95492.78;;;26.51;50.91
7182;BME280;3632;42.724;23.298;2022-09-09T10:00:21;95486.75;;;26.51;51.14
7182;BME280;3632;42.724;23.298;2022-09-09T10:02:49;95487.84;;;26.61;51.25
7182;BME280;3632;42.724;23.298;2022-09-09T10:05:20;95498.38;;;26.55;50.61
7182;BME280;3632;42.724;23.298;2022-09-09T10:08:00;95495.75;;;26.55;51.35
7182;BME280;3632;42.724;23.298;2022-09-09T10:10:37;95502.47;;;26.44;51.40
7182;BME280;3632;42.724;23.298;2022-09-09T10:13:12;95505.97;;;26.31;51.50
7182;BME280;3632;42.724;23.298;2022-09-09T10:15:48;95505.66;;;26.15;51.59
7182;BME280;3632;42.724;23.298;2022-09-09T10:18:39;95496.31;;;26.01;51.07
7182;BME280;3632;42.724;23.298;2022-09-09T10:21:20;95435.97;;;25.33;51.21
7182;BME280;3632;42.724;23.298;2022-09-09T10:24:02;95507.59;;;25.95;51.40
7182;BME280;3632;42.724;23.298;2022-09-09T10:26:39;95506.59;;;25.96;51.63
7182;BME280;3632;42.724;23.298;2022-09-09T10:29:37;95509.19;;;25.96;51.79
7182;BME280;3632;42.724;23.298;2022-09-09T10:35:02;95509.44;;;25.87;51.91
7182;BME280;3632;42.724;23.298;2022-09-09T10:37:45;95500.19;;;25.85;51.97
7182;BME280;3632;42.724;23.298;2022-09-09T10:40:25;95515.25;;;25.89;52.02
7182;BME280;3632;42.724;23.298;2022-09-09T10:43:00;95492.44;;;25.72;52.22
7182;BME280;3632;42.724;23.298;2022-09-09T10:45:37;95514.06;;;25.85;52.23
7182;BME280;3632;42.724;23.298;2022-09-09T10:48:20;95518.88;;;25.88;52.26
7182;BME280;3632;42.724;23.298;2022-09-09T10:50:56;95526.50;;;25.90;52.44
7182;BME280;3632;42.724;23.298;2022-09-09T10:53:35;95512.81;;;25.95;52.83
7182;BME280;3632;42.724;23.298;2022-09-09T10:56:07;95511.19;;;26.00;52.52
7182;BME280;3632;42.724;23.298;2022-09-09T10:58:39;95514.38;;;26.02;53.05
7182;BME280;3632;42.724;23.298;2022-09-09T11:01:14;95508.31;;;26.08;52.73
7182;BME280;3632;42.724;23.298;2022-09-09T11:03:43;95505.78;;;25.95;52.59
7182;BME280;3632;42.724;23.298;2022-09-09T11:06:17;95448.84;;;25.72;52.86
7182;BME280;3632;42.724;23.298;2022-09-09T11:08:47;95503.03;;;26.15;52.56
7182;BME280;3632;42.724;23.298;2022-09-09T11:11:19;95504.06;;;26.14;53.00
7182;BME280;3632;42.724;23.298;2022-09-09T11:13:52;95504.84;;;26.14;53.42
7182;BME280;3632;42.724;23.298;2022-09-09T11:16:27;95499.00;;;26.19;53.48
7182;BME280;3632;42.724;23.298;2022-09-09T11:18:59;95500.97;;;26.30;53.48
7182;BME280;3632;42.724;23.298;2022-09-09T11:21:31;95495.50;;;26.38;53.26
7182;BME280;3632;42.724;23.298;2022-09-09T11:24:03;95494.00;;;26.49;52.71
7182;BME280;3632;42.724;23.298;2022-09-09T11:26:36;95491.91;;;26.57;53.19
7182;BME280;3632;42.724;23.298;2022-09-09T11:29:18;95494.13;;;26.60;52.92
7182;BME280;3632;42.724;23.298;2022-09-09T11:31:58;95482.06;;;26.59;52.78
7182;BME280;3632;42.724;23.298;2022-09-09T11:34:45;95473.78;;;26.62;52.87
7182;BME280;3632;42.724;23.298;2022-09-09T11:40:17;95421.59;;;26.49;53.29
7182;BME280;3632;42.724;23.298;2022-09-09T11:42:45;95444.19;;;26.87;52.76
7182;BME280;3632;42.724;23.298;2022-09-09T11:45:23;95433.84;;;26.98;53.10
7182;BME280;3632;42.724;23.298;2022-09-09T11:47:54;95431.88;;;26.94;52.87
7182;BME280;3632;42.724;23.298;2022-09-09T11:50:29;95419.50;;;27.01;53.37
7182;BME280;3632;42.724;23.298;2022-09-09T11:53:06;95417.19;;;27.11;53.06
7182;BME280;3632;42.724;23.298;2022-09-09T11:55:46;95421.97;;;27.32;52.67
7182;BME280;3632;42.724;23.298;2022-09-09T11:58:17;95427.63;;;27.65;51.73
7182;BME280;3632;42.724;23.298;2022-09-09T12:00:47;95419.97;;;28.05;50.53
7182;BME280;3632;42.724;23.298;2022-09-09T12:03:34;95421.44;;;28.54;50.10
7182;BME280;3632;42.724;23.298;2022-09-09T12:06:09;95422.38;;;29.07;48.68
7182;BME280;3632;42.724;23.298;2022-09-09T12:08:41;95414.50;;;29.46;48.29
7182;BME280;3632;42.724;23.298;2022-09-09T12:11:11;95351.56;;;29.52;46.75
7182;BME280;3632;42.724;23.298;2022-09-09T12:13:38;95398.84;;;30.08;46.59
7182;BME280;3632;42.724;23.298;2022-09-09T12:16:28;95340.97;;;29.46;46.42
7182;BME280;3632;42.724;23.298;2022-09-09T12:19:04;95397.34;;;29.56;48.33
7182;BME280;3632;42.724;23.298;2022-09-09T12:21:34;95394.28;;;29.47;48.35
7182;BME280;3632;42.724;23.298;2022-09-09T12:24:07;95401.97;;;29.37;47.61
7182;BME280;3632;42.724;23.298;2022-09-09T12:26:38;95392.78;;;29.51;47.42
7182;BME280;3632;42.724;23.298;2022-09-09T12:29:21;95382.50;;;29.78;47.44
7182;BME280;3632;42.724;23.298;2022-09-09T12:31:56;95385.91;;;30.07;46.39
7182;BME280;3632;42.724;23.298;2022-09-09T12:34:38;95375.31;;;30.18;46.38
7182;BME280;3632;42.724;23.298;2022-09-09T12:37:11;95309.66;;;29.73;46.89
7182;BME280;3632;42.724;23.298;2022-09-09T12:39:43;95372.09;;;29.83;47.73
7182;BME280;3632;42.724;23.298;2022-09-09T12:42:21;95375.03;;;29.70;48.44
7182;BME280;3632;42.724;23.298;2022-09-09T12:44:55;95367.88;;;29.54;47.84
7182;BME280;3632;42.724;23.298;2022-09-09T12:47:26;95378.00;;;29.33;48.38
7182;BME280;3632;42.724;23.298;2022-09-09T12:49:56;95366.25;;;29.36;48.65
7182;BME280;3632;42.724;23.298;2022-09-09T12:52:26;95367.22;;;29.46;47.61
7182;BME280;3632;42.724;23.298;2022-09-09T12:54:55;95367.72;;;29.43;47.19
7182;BME280;3632;42.724;23.298;2022-09-09T12:57:25;95360.59;;;29.72;46.64
7182;BME280;3632;42.724;23.298;2022-09-09T13:00:04;95357.63;;;29.52;46.00
7182;BME280;3632;42.724;23.298;2022-09-09T13:02:32;95365.97;;;29.09;47.11
7182;BME280;3632;42.724;23.298;2022-09-09T13:05:08;95296.63;;;28.42;47.16
7182;BME280;3632;42.724;23.298;2022-09-09T13:07:39;95367.97;;;28.79;47.90
7182;BME280;3632;42.724;23.298;2022-09-09T13:10:10;95361.69;;;28.80;47.27
7182;BME280;3632;42.724;23.298;2022-09-09T13:12:40;95355.06;;;28.89;47.41
7182;BME280;3632;42.724;23.298;2022-09-09T13:15:16;95352.00;;;29.20;47.19
7182;BME280;3632;42.724;23.298;2022-09-09T13:17:51;95352.97;;;29.42;46.62
7182;BME280;3632;42.724;23.298;2022-09-09T13:20:19;95350.25;;;29.37;46.59
7182;BME280;3632;42.724;23.298;2022-09-09T13:22:47;95331.84;;;29.09;46.57
7182;BME280;3632;42.724;23.298;2022-09-09T13:25:21;95322.75;;;29.00;47.40
7182;BME280;3632;42.724;23.298;2022-09-09T13:28:03;95332.41;;;29.11;47.35
7182;BME280;3632;42.724;23.298;2022-09-09T13:30:31;95338.81;;;29.03;47.90
7182;BME280;3632;42.724;23.298;2022-09-09T13:33:18;95338.19;;;28.73;48.05
7182;BME280;3632;42.724;23.298;2022-09-09T13:35:49;95327.06;;;28.43;49.11
7182;BME280;3632;42.724;23.298;2022-09-09T13:38:17;95331.63;;;28.24;48.92